createdAt,value
2019-03-28T00:03:12.651Z,10.90
2019-03-28T00:08:15.288Z,10.91
2019-03-28T00:13:19.283Z,10.90
2019-03-28T00:18:21.803Z,10.96
2019-03-28T00:23:45.850Z,10.96
2019-03-28T00:28:48.473Z,10.99
2019-03-28T00:33:51.196Z,11.06
2019-03-28T00:38:53.852Z,11.15
2019-03-28T00:43:56.697Z,10.97
2019-03-28T00:48:59.264Z,10.94
2019-03-28T00:54:02.352Z,11.25
2019-03-28T00:59:07.941Z,11.15
2019-03-28T01:04:10.834Z,10.85
2019-03-28T01:09:13.410Z,10.90
2019-03-28T01:14:16.272Z,11.06
2019-03-28T01:19:18.915Z,10.86
2019-03-28T01:24:21.773Z,10.91
2019-03-28T01:29:24.411Z,10.88
2019-03-28T01:34:30.312Z,11.03
2019-03-28T01:39:32.942Z,11.03
2019-03-28T01:44:35.501Z,10.93
2019-03-28T01:49:38.056Z,10.84
2019-03-28T01:54:40.782Z,10.76
2019-03-28T01:59:43.499Z,10.71
2019-03-28T02:04:46.235Z,10.83
2019-03-28T02:09:51.557Z,10.90
2019-03-28T02:14:56.171Z,10.85
2019-03-28T02:20:01.808Z,10.65
2019-03-28T02:25:05.454Z,10.71
2019-03-28T02:30:08.742Z,10.85
2019-03-28T02:35:11.949Z,10.68
2019-03-28T02:40:14.586Z,10.93
2019-03-28T02:45:17.512Z,10.87
2019-03-28T02:50:22.141Z,10.95
2019-03-28T02:55:24.789Z,10.82
2019-03-28T03:00:27.408Z,10.81
2019-03-28T03:05:30.268Z,10.69
2019-03-28T03:10:32.844Z,10.74
2019-03-28T03:15:38.555Z,10.54
2019-03-28T03:20:41.514Z,10.49
2019-03-28T03:25:46.437Z,10.38
2019-03-28T03:30:48.998Z,10.39
2019-03-28T03:35:51.965Z,10.48
2019-03-28T03:40:54.897Z,10.58
2019-03-28T03:45:58.390Z,10.48
2019-03-28T03:51:01.071Z,10.41
2019-03-28T03:56:04.010Z,10.57
2019-03-28T04:01:06.908Z,10.48
2019-03-28T04:06:09.827Z,10.40
2019-03-28T04:11:12.485Z,10.35
2019-03-28T04:16:15.190Z,10.46
2019-03-28T04:21:17.937Z,10.39
2019-03-28T04:26:20.698Z,10.49
2019-03-28T04:31:26.108Z,10.55
2019-03-28T04:36:29.024Z,10.52
2019-03-28T04:41:31.657Z,10.67
2019-03-28T04:46:34.557Z,10.60
2019-03-28T04:51:38.852Z,10.39
2019-03-28T04:56:41.544Z,10.56
2019-03-28T05:01:44.108Z,10.55
2019-03-28T05:06:46.704Z,10.74
2019-03-28T05:11:49.308Z,10.68
2019-03-28T05:16:53.089Z,10.67
2019-03-28T05:21:56.403Z,10.67
2019-03-28T05:26:59.221Z,10.60
2019-03-28T05:32:01.849Z,10.68
2019-03-28T05:37:04.821Z,10.78
2019-03-28T05:42:10.164Z,10.69
2019-03-28T05:47:13.021Z,10.67
2019-03-28T05:52:15.588Z,10.88
2019-03-28T05:57:18.609Z,10.56
2019-03-28T06:02:21.346Z,10.64
2019-03-28T06:07:31.094Z,10.76
2019-03-28T06:12:33.666Z,10.83
2019-03-28T06:17:36.338Z,11.01
2019-03-28T06:22:39.567Z,10.93
2019-03-28T06:27:42.402Z,11.03
2019-03-28T06:32:45.258Z,11.06
2019-03-28T06:37:51.580Z,11.20
2019-03-28T06:42:54.540Z,11.03
2019-03-28T06:47:57.114Z,11.36
2019-03-28T06:52:59.693Z,11.44
2019-03-28T06:58:02.339Z,11.51
2019-03-28T07:03:05.257Z,12.21
2019-03-28T07:08:07.863Z,12.19
2019-03-28T07:13:10.628Z,12.48
2019-03-28T07:18:16.019Z,12.08
2019-03-28T07:23:19.006Z,12.36
2019-03-28T07:28:21.833Z,12.50
2019-03-28T07:33:26.947Z,12.48
2019-03-28T07:38:30.436Z,12.75
2019-03-28T07:43:33.246Z,12.49
2019-03-28T07:48:35.842Z,12.92
2019-03-28T07:53:38.878Z,12.89
2019-03-28T07:58:44.146Z,13.14
2019-03-28T08:03:47.989Z,13.36
2019-03-28T08:08:50.577Z,13.36
2019-03-28T08:13:56.404Z,13.47
2019-03-28T08:18:59.168Z,13.68
2019-03-28T08:24:01.987Z,13.08
2019-03-28T08:29:04.768Z,13.44
2019-03-28T08:34:07.789Z,13.77
2019-03-28T08:39:10.436Z,13.44
2019-03-28T08:44:13.013Z,12.99
2019-03-28T08:49:18.435Z,12.58
2019-03-28T08:54:22.343Z,13.05
2019-03-28T08:59:24.958Z,13.65
2019-03-28T09:04:27.653Z,13.55
2019-03-28T09:09:32.738Z,13.55
2019-03-28T09:14:37.081Z,12.95
2019-03-28T09:19:42.660Z,12.80
2019-03-28T09:24:45.454Z,12.80
2019-03-28T09:29:48.092Z,12.20
2019-03-28T09:34:50.985Z,12.40
2019-03-28T09:39:54.281Z,13.27
2019-03-28T09:45:00.014Z,13.27
2019-03-28T09:50:02.597Z,12.05
2019-03-28T09:55:05.659Z,13.01
2019-03-28T10:00:09.965Z,13.48
2019-03-28T10:05:14.329Z,13.67
2019-03-28T10:10:18.710Z,13.67
2019-03-28T10:15:21.589Z,13.64
2019-03-28T10:20:24.310Z,13.76
2019-03-28T10:25:27.128Z,14.91
2019-03-28T10:30:44.961Z,14.93
2019-03-28T10:35:50.470Z,14.63
2019-03-28T10:40:53.052Z,13.29
2019-03-28T10:45:58.999Z,11.63
2019-03-28T10:51:02.587Z,12.30
2019-03-28T10:56:05.686Z,13.18
2019-03-28T11:01:08.402Z,13.18
2019-03-28T11:06:11.209Z,13.03
2019-03-28T11:11:13.786Z,13.36
2019-03-28T11:16:19.517Z,13.37
2019-03-28T11:21:25.229Z,13.57
2019-03-28T11:26:31.478Z,13.57
2019-03-28T11:31:45.528Z,13.00
2019-03-28T11:36:39.291Z,13.76
2019-03-28T11:41:41.923Z,13.29
2019-03-28T11:46:46.664Z,13.02
2019-03-28T11:51:50.306Z,12.93
2019-03-28T11:57:00.768Z,12.82
2019-03-28T12:02:19.077Z,12.91
2019-03-28T12:07:09.509Z,13.85
2019-03-28T12:12:14.726Z,13.85
2019-03-28T12:17:24.083Z,12.91
2019-03-28T12:22:26.680Z,12.93
2019-03-28T12:27:30.764Z,13.42
2019-03-28T12:32:33.277Z,13.45
2019-03-28T12:37:36.679Z,13.42
2019-03-28T12:42:39.792Z,13.26
2019-03-28T12:47:43.213Z,13.14
2019-03-28T12:52:46.186Z,13.01
2019-03-28T12:57:51.597Z,12.52
2019-03-28T13:02:54.743Z,12.49
2019-03-28T13:07:57.338Z,12.80
2019-03-28T13:13:01.221Z,13.04
2019-03-28T13:18:06.606Z,13.73
2019-03-28T13:23:09.223Z,13.43
2019-03-28T13:28:11.792Z,13.35
2019-03-28T13:33:14.597Z,13.49
2019-03-28T13:38:17.173Z,13.48
2019-03-28T13:43:19.766Z,13.82
2019-03-28T13:48:25.024Z,13.60
2019-03-28T13:53:39.373Z,13.56
2019-03-28T13:58:34.897Z,12.99
2019-03-28T14:03:41.378Z,13.26
2019-03-28T14:08:45.524Z,13.70
2019-03-28T14:13:48.247Z,13.51
2019-03-28T14:18:50.831Z,13.50
2019-03-28T14:23:53.873Z,12.67
2019-03-28T14:28:56.478Z,13.12
2019-03-28T14:33:59.330Z,13.29
2019-03-28T14:39:01.939Z,13.96
2019-03-28T14:44:04.592Z,13.91
2019-03-28T14:49:07.281Z,13.41
2019-03-28T14:54:13.119Z,13.38
2019-03-28T14:59:31.396Z,13.96
2019-03-28T15:04:23.422Z,14.30
2019-03-28T15:09:25.992Z,14.13
2019-03-28T15:14:28.624Z,14.00
2019-03-28T15:19:31.277Z,14.02
2019-03-28T15:24:36.592Z,13.76
2019-03-28T15:29:39.168Z,14.25
2019-03-28T15:34:43.049Z,13.88
2019-03-28T15:39:49.305Z,14.00
2019-03-28T15:44:54.777Z,13.60
2019-03-28T15:49:57.431Z,14.06
2019-03-28T15:55:02.255Z,14.03
2019-03-28T16:00:08.947Z,13.92
2019-03-28T16:05:13.814Z,13.70
2019-03-28T16:10:19.073Z,14.11
2019-03-28T16:15:22.866Z,13.62
2019-03-28T16:20:25.623Z,13.42
2019-03-28T16:25:28.599Z,13.81
2019-03-28T16:30:37.584Z,13.95
2019-03-28T16:35:40.275Z,13.50
2019-03-28T16:40:46.490Z,13.56
2019-03-28T16:45:51.790Z,13.75
2019-03-28T16:50:54.758Z,13.77
2019-03-28T16:55:57.480Z,13.23
2019-03-28T17:01:01.529Z,13.12
2019-03-28T17:06:05.679Z,13.12
2019-03-28T17:11:08.260Z,13.43
2019-03-28T17:16:11.542Z,13.43
2019-03-28T17:21:14.366Z,13.10
2019-03-28T17:26:19.735Z,13.15
2019-03-28T17:31:25.111Z,13.01
2019-03-28T17:36:30.047Z,13.01
2019-03-28T17:41:32.601Z,13.01
2019-03-28T17:46:35.332Z,13.30
2019-03-28T17:51:40.515Z,12.81
2019-03-28T17:56:42.654Z,12.87
2019-03-28T18:01:45.318Z,12.71
2019-03-28T18:06:48.292Z,12.25
2019-03-28T18:11:51.006Z,11.86
2019-03-28T18:16:59.964Z,11.92
2019-03-28T18:22:04.005Z,11.45
2019-03-28T18:27:07.139Z,11.45
2019-03-28T18:32:09.690Z,11.43
2019-03-28T18:37:12.340Z,11.22
2019-03-28T18:42:16.465Z,11.23
2019-03-28T18:47:21.856Z,11.05
2019-03-28T18:52:26.420Z,10.99
2019-03-28T18:57:32.488Z,10.91
2019-03-28T19:02:35.120Z,10.68
2019-03-28T19:07:37.777Z,10.83
2019-03-28T19:12:40.327Z,10.57
2019-03-28T19:17:42.906Z,10.71
2019-03-28T19:22:50.261Z,11.07
2019-03-28T19:27:54.079Z,11.23
2019-03-28T19:32:57.887Z,11.47
2019-03-28T19:38:03.792Z,11.58
2019-03-28T19:43:19.711Z,11.48
2019-03-28T19:48:12.651Z,11.42
2019-03-28T19:53:15.266Z,11.42
2019-03-28T19:58:17.850Z,11.72
2019-03-28T20:03:23.171Z,11.69
2019-03-28T20:08:26.258Z,11.94
2019-03-28T20:13:31.058Z,11.85
2019-03-28T20:18:35.898Z,11.52
2019-03-28T20:23:40.876Z,11.73
2019-03-28T20:28:43.509Z,11.45
2019-03-28T20:33:48.872Z,11.20
2019-03-28T20:39:03.764Z,11.08
2019-03-28T20:43:58.705Z,11.18
2019-03-28T20:49:01.255Z,11.29
2019-03-28T20:54:07.791Z,11.08
2019-03-28T20:59:12.005Z,10.90
2019-03-28T21:04:16.090Z,10.76
2019-03-28T21:09:20.456Z,10.33
2019-03-28T21:14:23.209Z,10.37
2019-03-28T21:19:28.353Z,10.17
2019-03-28T21:24:31.197Z,10.30
2019-03-28T21:29:34.143Z,10.15
2019-03-28T21:34:36.732Z,9.80
2019-03-28T21:39:41.886Z,9.90
2019-03-28T21:44:48.766Z,9.78
2019-03-28T21:49:52.105Z,9.52
2019-03-28T21:54:54.699Z,9.40
2019-03-28T21:59:57.249Z,9.49
2019-03-28T22:05:00.988Z,9.21
2019-03-28T22:10:08.681Z,9.15
2019-03-28T22:15:15.920Z,9.12
2019-03-28T22:20:18.527Z,8.98
2019-03-28T22:25:23.111Z,8.88
2019-03-28T22:30:25.760Z,8.90
2019-03-28T22:35:28.354Z,8.85
2019-03-28T22:40:31.030Z,8.94
2019-03-28T22:45:33.811Z,8.67
2019-03-28T22:50:38.611Z,8.57
2019-03-28T22:55:41.160Z,8.60
2019-03-28T23:00:45.548Z,8.57
2019-03-28T23:05:48.210Z,8.50
2019-03-28T23:10:50.758Z,8.29
2019-03-28T23:16:01.352Z,8.20
2019-03-28T23:21:03.922Z,8.23
2019-03-28T23:26:06.571Z,8.09
2019-03-28T23:31:12.140Z,8.00
2019-03-28T23:36:14.777Z,7.92
2019-03-28T23:41:19.891Z,8.06
2019-03-28T23:46:22.782Z,7.83
2019-03-28T23:51:25.465Z,7.80
2019-03-28T23:56:29.230Z,7.68
